Terminal Aerodrome Forecast
Issued by NWS Upton, NY

Home | Current Version | Previous Version | Text Only | Print | Product List | Glossary On
Versions: 1 2 3 4 5 6 7 8 9 10 11 12 13 14 15 16 17 18 19 20 21 22 23 24
000
FTUS41 KOKX 160200 AAA
TAFISP
TAF AMD
KISP 160232Z 1603/1624 VRB03KT P6SM SCT150 OVC250
     FM161100 VRB03KT P6SM VCSH BKN050 OVC150
     FM161600 30007KT P6SM BKN070 BKN150
     FM162100 26007KT P6SM SCT070 SCT150=

USA.gov is the U.S. government's official web portal to all federal, state and local government web resources and services.